sensor_id;sensor_type;location;lat;lon;timestamp;temperature;humidity
6106;DHT22;3083;51.508;7.966;2023-09-19T00:00:56;15.50;99.90
6106;DHT22;3083;51.508;7.966;2023-09-19T00:03:23;15.50;99.90
6106;DHT22;3083;51.508;7.966;2023-09-19T00:05:52;15.50;99.90
6106;DHT22;3083;51.508;7.966;2023-09-19T00:08:21;15.50;99.90
6106;DHT22;3083;51.508;7.966;2023-09-19T00:10:50;15.60;99.90
6106;DHT22;3083;51.508;7.966;2023-09-19T00:13:19;15.50;99.90
6106;DHT22;3083;51.508;7.966;2023-09-19T00:15:47;15.60;99.90
6106;DHT22;3083;51.508;7.966;2023-09-19T00:18:15;15.50;99.90
6106;DHT22;3083;51.508;7.966;2023-09-19T00:20:43;15.50;99.90
6106;DHT22;3083;51.508;7.966;2023-09-19T00:23:14;15.60;99.90
6106;DHT22;3083;51.508;7.966;2023-09-19T00:25:42;15.60;99.90
6106;DHT22;3083;51.508;7.966;2023-09-19T00:28:08;15.60;99.90
6106;DHT22;3083;51.508;7.966;2023-09-19T00:30:35;15.60;99.90
6106;DHT22;3083;51.508;7.966;2023-09-19T00:33:04;15.50;99.90
6106;DHT22;3083;51.508;7.966;2023-09-19T00:35:33;15.60;99.90
6106;DHT22;3083;51.508;7.966;2023-09-19T00:38:00;15.60;99.90
6106;DHT22;3083;51.508;7.966;2023-09-19T00:40:28;15.60;99.90
6106;DHT22;3083;51.508;7.966;2023-09-19T00:42:58;15.60;99.90
6106;DHT22;3083;51.508;7.966;2023-09-19T00:45:25;15.60;99.90
6106;DHT22;3083;51.508;7.966;2023-09-19T00:47:54;15.60;99.90
6106;DHT22;3083;51.508;7.966;2023-09-19T00:50:23;15.60;99.90
6106;DHT22;3083;51.508;7.966;2023-09-19T00:52:53;15.60;99.90
6106;DHT22;3083;51.508;7.966;2023-09-19T00:55:21;15.50;99.90
6106;DHT22;3083;51.508;7.966;2023-09-19T00:57:51;15.50;99.90
6106;DHT22;3083;51.508;7.966;2023-09-19T01:00:18;15.50;99.90
6106;DHT22;3083;51.508;7.966;2023-09-19T01:02:46;15.50;99.90
6106;DHT22;3083;51.508;7.966;2023-09-19T01:05:13;15.50;99.90
6106;DHT22;3083;51.508;7.966;2023-09-19T01:07:41;15.50;99.90
6106;DHT22;3083;51.508;7.966;2023-09-19T01:10:11;15.40;99.90
6106;DHT22;3083;51.508;7.966;2023-09-19T01:12:48;15.40;99.90
6106;DHT22;3083;51.508;7.966;2023-09-19T01:15:25;15.30;99.90
6106;DHT22;3083;51.508;7.966;2023-09-19T01:18:01;15.30;99.90
6106;DHT22;3083;51.508;7.966;2023-09-19T01:20:39;15.20;99.90
6106;DHT22;3083;51.508;7.966;2023-09-19T01:23:16;15.10;99.90
6106;DHT22;3083;51.508;7.966;2023-09-19T01:26:06;15.10;99.90
6106;DHT22;3083;51.508;7.966;2023-09-19T01:28:45;15.10;99.90
6106;DHT22;3083;51.508;7.966;2023-09-19T01:31:21;15.00;99.90
6106;DHT22;3083;51.508;7.966;2023-09-19T01:33:58;15.00;99.90
6106;DHT22;3083;51.508;7.966;2023-09-19T01:36:31;15.00;99.90
6106;DHT22;3083;51.508;7.966;2023-09-19T01:39:02;14.90;99.90
6106;DHT22;3083;51.508;7.966;2023-09-19T01:41:56;14.90;99.90
6106;DHT22;3083;51.508;7.966;2023-09-19T01:44:44;14.90;99.90
6106;DHT22;3083;51.508;7.966;2023-09-19T01:47:22;14.80;99.90
6106;DHT22;3083;51.508;7.966;2023-09-19T01:49:55;14.80;99.90
6106;DHT22;3083;51.508;7.966;2023-09-19T01:52:28;14.80;99.90
6106;DHT22;3083;51.508;7.966;2023-09-19T01:55:02;14.80;99.90
6106;DHT22;3083;51.508;7.966;2023-09-19T01:57:35;14.80;99.90
6106;DHT22;3083;51.508;7.966;2023-09-19T02:00:07;14.70;99.90
6106;DHT22;3083;51.508;7.966;2023-09-19T02:02:37;14.70;99.90
6106;DHT22;3083;51.508;7.966;2023-09-19T02:05:05;14.60;99.90
6106;DHT22;3083;51.508;7.966;2023-09-19T02:07:32;14.60;99.90
6106;DHT22;3083;51.508;7.966;2023-09-19T02:09:59;14.60;99.90
6106;DHT22;3083;51.508;7.966;2023-09-19T02:12:26;14.60;99.90
6106;DHT22;3083;51.508;7.966;2023-09-19T02:14:54;14.60;99.90
6106;DHT22;3083;51.508;7.966;2023-09-19T02:17:21;14.60;99.90
6106;DHT22;3083;51.508;7.966;2023-09-19T02:19:50;14.70;99.90
6106;DHT22;3083;51.508;7.966;2023-09-19T02:22:17;14.70;99.90
6106;DHT22;3083;51.508;7.966;2023-09-19T02:24:44;14.70;99.90
6106;DHT22;3083;51.508;7.966;2023-09-19T02:27:13;14.70;99.90
6106;DHT22;3083;51.508;7.966;2023-09-19T02:29:41;14.70;99.90
6106;DHT22;3083;51.508;7.966;2023-09-19T02:32:08;14.60;99.90
6106;DHT22;3083;51.508;7.966;2023-09-19T02:34:35;14.60;99.90
6106;DHT22;3083;51.508;7.966;2023-09-19T02:37:06;14.60;99.90
6106;DHT22;3083;51.508;7.966;2023-09-19T02:39:34;14.50;99.90
6106;DHT22;3083;51.508;7.966;2023-09-19T02:42:01;14.50;99.90
6106;DHT22;3083;51.508;7.966;2023-09-19T02:44:29;14.50;99.90
6106;DHT22;3083;51.508;7.966;2023-09-19T02:46:57;14.50;99.90
6106;DHT22;3083;51.508;7.966;2023-09-19T02:49:24;14.40;99.90
6106;DHT22;3083;51.508;7.966;2023-09-19T02:51:51;14.40;99.90
6106;DHT22;3083;51.508;7.966;2023-09-19T02:54:19;14.40;99.90
6106;DHT22;3083;51.508;7.966;2023-09-19T02:56:47;14.30;99.90
6106;DHT22;3083;51.508;7.966;2023-09-19T02:59:14;14.30;99.90
6106;DHT22;3083;51.508;7.966;2023-09-19T03:01:43;14.30;99.90
6106;DHT22;3083;51.508;7.966;2023-09-19T03:04:12;14.30;99.90
6106;DHT22;3083;51.508;7.966;2023-09-19T03:06:39;14.30;99.90
6106;DHT22;3083;51.508;7.966;2023-09-19T03:09:06;14.20;99.90
6106;DHT22;3083;51.508;7.966;2023-09-19T03:11:40;14.20;99.90
6106;DHT22;3083;51.508;7.966;2023-09-19T03:14:07;14.20;99.90
6106;DHT22;3083;51.508;7.966;2023-09-19T03:16:35;14.20;99.90
6106;DHT22;3083;51.508;7.966;2023-09-19T03:19:03;14.20;99.90
6106;DHT22;3083;51.508;7.966;2023-09-19T03:21:30;14.20;99.90
6106;DHT22;3083;51.508;7.966;2023-09-19T03:23:57;14.20;99.90
6106;DHT22;3083;51.508;7.966;2023-09-19T03:26:24;14.20;99.90
6106;DHT22;3083;51.508;7.966;2023-09-19T03:28:53;14.20;99.90
6106;DHT22;3083;51.508;7.966;2023-09-19T03:31:20;14.20;99.90
6106;DHT22;3083;51.508;7.966;2023-09-19T03:33:47;14.20;99.90
6106;DHT22;3083;51.508;7.966;2023-09-19T03:36:14;14.20;99.90
6106;DHT22;3083;51.508;7.966;2023-09-19T03:38:40;14.20;99.90
6106;DHT22;3083;51.508;7.966;2023-09-19T03:41:07;14.20;99.90
6106;DHT22;3083;51.508;7.966;2023-09-19T03:43:34;14.20;99.90
6106;DHT22;3083;51.508;7.966;2023-09-19T03:46:03;14.10;99.90
6106;DHT22;3083;51.508;7.966;2023-09-19T03:48:30;14.10;99.90
6106;DHT22;3083;51.508;7.966;2023-09-19T03:50:57;14.10;99.90
6106;DHT22;3083;51.508;7.966;2023-09-19T03:53:24;14.10;99.90
6106;DHT22;3083;51.508;7.966;2023-09-19T03:55:51;14.10;99.90
6106;DHT22;3083;51.508;7.966;2023-09-19T03:58:18;14.10;99.90
6106;DHT22;3083;51.508;7.966;2023-09-19T04:00:46;14.10;99.90
6106;DHT22;3083;51.508;7.966;2023-09-19T04:03:15;14.10;99.90
6106;DHT22;3083;51.508;7.966;2023-09-19T04:05:46;14.10;99.90
6106;DHT22;3083;51.508;7.966;2023-09-19T04:08:13;14.10;99.90
6106;DHT22;3083;51.508;7.966;2023-09-19T04:10:42;14.00;99.90
6106;DHT22;3083;51.508;7.966;2023-09-19T04:13:09;14.00;99.90
6106;DHT22;3083;51.508;7.966;2023-09-19T04:15:36;13.90;99.90
6106;DHT22;3083;51.508;7.966;2023-09-19T04:18:03;13.90;99.90
6106;DHT22;3083;51.508;7.966;2023-09-19T04:20:32;13.90;99.90
6106;DHT22;3083;51.508;7.966;2023-09-19T04:22:59;13.90;99.90
6106;DHT22;3083;51.508;7.966;2023-09-19T04:25:26;13.90;99.90
6106;DHT22;3083;51.508;7.966;2023-09-19T04:27:53;13.80;99.90
6106;DHT22;3083;51.508;7.966;2023-09-19T04:30:20;13.80;99.90
6106;DHT22;3083;51.508;7.966;2023-09-19T04:32:47;13.80;99.90
6106;DHT22;3083;51.508;7.966;2023-09-19T04:35:16;13.70;99.90
6106;DHT22;3083;51.508;7.966;2023-09-19T04:37:44;13.70;99.90
6106;DHT22;3083;51.508;7.966;2023-09-19T04:40:12;13.70;99.90
6106;DHT22;3083;51.508;7.966;2023-09-19T04:42:40;13.60;99.90
6106;DHT22;3083;51.508;7.966;2023-09-19T04:45:08;13.60;99.90
6106;DHT22;3083;51.508;7.966;2023-09-19T04:47:36;13.60;99.90
6106;DHT22;3083;51.508;7.966;2023-09-19T04:50:06;13.60;99.90
6106;DHT22;3083;51.508;7.966;2023-09-19T04:52:34;13.60;99.90
6106;DHT22;3083;51.508;7.966;2023-09-19T04:55:02;13.60;99.90
6106;DHT22;3083;51.508;7.966;2023-09-19T04:57:30;13.60;99.90
6106;DHT22;3083;51.508;7.966;2023-09-19T04:59:57;13.50;99.90
6106;DHT22;3083;51.508;7.966;2023-09-19T05:02:24;13.50;99.90
6106;DHT22;3083;51.508;7.966;2023-09-19T05:04:51;13.50;99.90
6106;DHT22;3083;51.508;7.966;2023-09-19T05:07:19;13.50;99.90
6106;DHT22;3083;51.508;7.966;2023-09-19T05:09:47;13.50;99.90
6106;DHT22;3083;51.508;7.966;2023-09-19T05:12:15;13.50;99.90
6106;DHT22;3083;51.508;7.966;2023-09-19T05:14:45;13.50;99.90
6106;DHT22;3083;51.508;7.966;2023-09-19T05:17:13;13.50;99.90
6106;DHT22;3083;51.508;7.966;2023-09-19T05:19:42;13.50;99.90
6106;DHT22;3083;51.508;7.966;2023-09-19T05:22:09;13.50;99.90
6106;DHT22;3083;51.508;7.966;2023-09-19T05:24:36;13.50;99.90
6106;DHT22;3083;51.508;7.966;2023-09-19T05:27:04;13.40;99.90
6106;DHT22;3083;51.508;7.966;2023-09-19T05:29:34;13.50;99.90
6106;DHT22;3083;51.508;7.966;2023-09-19T05:32:01;13.40;99.90
6106;DHT22;3083;51.508;7.966;2023-09-19T05:34:29;13.40;99.90
6106;DHT22;3083;51.508;7.966;2023-09-19T05:36:56;13.50;99.90
6106;DHT22;3083;51.508;7.966;2023-09-19T05:39:23;13.50;99.90
6106;DHT22;3083;51.508;7.966;2023-09-19T05:41:49;13.50;99.90
6106;DHT22;3083;51.508;7.966;2023-09-19T05:44:16;13.50;99.90
6106;DHT22;3083;51.508;7.966;2023-09-19T05:46:44;13.50;99.90
6106;DHT22;3083;51.508;7.966;2023-09-19T05:49:13;13.50;99.90
6106;DHT22;3083;51.508;7.966;2023-09-19T05:51:41;13.50;99.90
6106;DHT22;3083;51.508;7.966;2023-09-19T05:54:08;13.60;99.90
6106;DHT22;3083;51.508;7.966;2023-09-19T05:56:36;13.60;99.90
6106;DHT22;3083;51.508;7.966;2023-09-19T05:59:03;13.60;99.90
6106;DHT22;3083;51.508;7.966;2023-09-19T06:01:30;13.60;99.90
6106;DHT22;3083;51.508;7.966;2023-09-19T06:03:59;13.70;99.90
6106;DHT22;3083;51.508;7.966;2023-09-19T06:06:26;13.70;99.90
6106;DHT22;3083;51.508;7.966;2023-09-19T06:08:53;13.70;99.90
6106;DHT22;3083;51.508;7.966;2023-09-19T06:11:20;13.80;99.90
6106;DHT22;3083;51.508;7.966;2023-09-19T06:13:47;13.80;99.90
6106;DHT22;3083;51.508;7.966;2023-09-19T06:16:13;13.80;99.90
6106;DHT22;3083;51.508;7.966;2023-09-19T06:18:40;13.80;99.90
6106;DHT22;3083;51.508;7.966;2023-09-19T06:21:08;13.90;99.90
6106;DHT22;3083;51.508;7.966;2023-09-19T06:23:35;14.00;99.90
6106;DHT22;3083;51.508;7.966;2023-09-19T06:26:02;14.00;99.90
6106;DHT22;3083;51.508;7.966;2023-09-19T06:28:32;14.00;99.90
6106;DHT22;3083;51.508;7.966;2023-09-19T06:30:59;14.00;99.90
6106;DHT22;3083;51.508;7.966;2023-09-19T06:33:25;14.10;99.90
6106;DHT22;3083;51.508;7.966;2023-09-19T06:35:52;14.10;99.90
6106;DHT22;3083;51.508;7.966;2023-09-19T06:38:26;14.10;99.90
6106;DHT22;3083;51.508;7.966;2023-09-19T06:40:53;14.20;99.90
6106;DHT22;3083;51.508;7.966;2023-09-19T06:43:21;14.20;99.90
6106;DHT22;3083;51.508;7.966;2023-09-19T06:45:48;14.30;99.90
6106;DHT22;3083;51.508;7.966;2023-09-19T06:48:16;14.30;99.90
6106;DHT22;3083;51.508;7.966;2023-09-19T06:50:43;14.40;99.90
6106;DHT22;3083;51.508;7.966;2023-09-19T06:53:10;14.40;99.90
6106;DHT22;3083;51.508;7.966;2023-09-19T06:55:38;14.50;99.90
6106;DHT22;3083;51.508;7.966;2023-09-19T06:58:05;14.50;99.90
6106;DHT22;3083;51.508;7.966;2023-09-19T07:00:33;14.50;99.90
6106;DHT22;3083;51.508;7.966;2023-09-19T07:03:03;14.60;99.90
6106;DHT22;3083;51.508;7.966;2023-09-19T07:05:34;14.60;99.90
6106;DHT22;3083;51.508;7.966;2023-09-19T07:08:03;14.70;99.90
6106;DHT22;3083;51.508;7.966;2023-09-19T07:10:32;14.70;99.90
6106;DHT22;3083;51.508;7.966;2023-09-19T07:13:01;14.80;99.90
6106;DHT22;3083;51.508;7.966;2023-09-19T07:15:30;14.80;99.90
6106;DHT22;3083;51.508;7.966;2023-09-19T07:17:59;14.90;99.90
6106;DHT22;3083;51.508;7.966;2023-09-19T07:20:26;14.90;99.90
6106;DHT22;3083;51.508;7.966;2023-09-19T07:22:57;15.00;99.90
6106;DHT22;3083;51.508;7.966;2023-09-19T07:25:25;15.00;99.90
6106;DHT22;3083;51.508;7.966;2023-09-19T07:27:52;15.00;99.90
6106;DHT22;3083;51.508;7.966;2023-09-19T07:30:20;15.00;99.90
6106;DHT22;3083;51.508;7.966;2023-09-19T07:32:47;15.00;99.90
6106;DHT22;3083;51.508;7.966;2023-09-19T07:35:14;15.10;99.90
6106;DHT22;3083;51.508;7.966;2023-09-19T07:37:41;15.20;99.90
6106;DHT22;3083;51.508;7.966;2023-09-19T07:40:09;15.20;99.90
6106;DHT22;3083;51.508;7.966;2023-09-19T07:42:37;15.30;99.90
6106;DHT22;3083;51.508;7.966;2023-09-19T07:45:07;15.30;99.90
6106;DHT22;3083;51.508;7.966;2023-09-19T07:47:36;15.40;99.90
6106;DHT22;3083;51.508;7.966;2023-09-19T07:50:03;15.50;99.90
6106;DHT22;3083;51.508;7.966;2023-09-19T07:52:30;15.50;99.90
6106;DHT22;3083;51.508;7.966;2023-09-19T07:54:59;15.60;99.90
6106;DHT22;3083;51.508;7.966;2023-09-19T07:57:27;15.70;99.90
6106;DHT22;3083;51.508;7.966;2023-09-19T07:59:54;15.70;99.90
6106;DHT22;3083;51.508;7.966;2023-09-19T08:02:21;15.80;99.90
6106;DHT22;3083;51.508;7.966;2023-09-19T08:04:49;16.00;99.90
6106;DHT22;3083;51.508;7.966;2023-09-19T08:07:17;16.10;99.90
6106;DHT22;3083;51.508;7.966;2023-09-19T08:09:44;16.10;99.90
6106;DHT22;3083;51.508;7.966;2023-09-19T08:12:14;16.20;99.90
6106;DHT22;3083;51.508;7.966;2023-09-19T08:14:41;16.30;99.90
6106;DHT22;3083;51.508;7.966;2023-09-19T08:17:08;16.30;99.90
6106;DHT22;3083;51.508;7.966;2023-09-19T08:19:34;16.40;99.90
6106;DHT22;3083;51.508;7.966;2023-09-19T08:22:03;16.40;99.90
6106;DHT22;3083;51.508;7.966;2023-09-19T08:24:30;16.50;99.90
6106;DHT22;3083;51.508;7.966;2023-09-19T08:26:58;16.60;99.90
6106;DHT22;3083;51.508;7.966;2023-09-19T08:29:25;16.60;99.90
6106;DHT22;3083;51.508;7.966;2023-09-19T08:31:54;16.70;99.90
6106;DHT22;3083;51.508;7.966;2023-09-19T08:34:21;16.80;99.90
6106;DHT22;3083;51.508;7.966;2023-09-19T08:36:50;16.90;99.90
6106;DHT22;3083;51.508;7.966;2023-09-19T08:39:18;17.00;99.90
6106;DHT22;3083;51.508;7.966;2023-09-19T08:41:45;17.20;99.90
6106;DHT22;3083;51.508;7.966;2023-09-19T08:44:12;17.40;99.90
6106;DHT22;3083;51.508;7.966;2023-09-19T08:46:41;17.50;99.90
6106;DHT22;3083;51.508;7.966;2023-09-19T08:49:13;17.60;99.90
6106;DHT22;3083;51.508;7.966;2023-09-19T08:51:45;17.70;99.90
6106;DHT22;3083;51.508;7.966;2023-09-19T08:54:21;17.80;99.90
6106;DHT22;3083;51.508;7.966;2023-09-19T08:56:50;17.80;99.90
6106;DHT22;3083;51.508;7.966;2023-09-19T08:59:21;17.80;99.90
6106;DHT22;3083;51.508;7.966;2023-09-19T09:01:50;17.80;99.90
6106;DHT22;3083;51.508;7.966;2023-09-19T09:04:19;17.80;99.90
6106;DHT22;3083;51.508;7.966;2023-09-19T09:06:46;17.80;99.90
6106;DHT22;3083;51.508;7.966;2023-09-19T09:09:14;17.80;99.90
6106;DHT22;3083;51.508;7.966;2023-09-19T09:11:42;17.70;99.90
6106;DHT22;3083;51.508;7.966;2023-09-19T09:14:09;17.60;99.90
6106;DHT22;3083;51.508;7.966;2023-09-19T09:16:37;17.60;99.90
6106;DHT22;3083;51.508;7.966;2023-09-19T09:19:05;17.60;99.90
6106;DHT22;3083;51.508;7.966;2023-09-19T09:21:31;17.70;99.90
6106;DHT22;3083;51.508;7.966;2023-09-19T09:24:28;17.70;99.90
6106;DHT22;3083;51.508;7.966;2023-09-19T09:26:57;17.80;99.90
6106;DHT22;3083;51.508;7.966;2023-09-19T09:29:42;17.80;99.90
6106;DHT22;3083;51.508;7.966;2023-09-19T09:32:20;17.90;99.90
6106;DHT22;3083;51.508;7.966;2023-09-19T09:34:50;17.90;99.90
6106;DHT22;3083;51.508;7.966;2023-09-19T09:37:17;17.90;99.90
6106;DHT22;3083;51.508;7.966;2023-09-19T09:39:49;18.00;99.90
6106;DHT22;3083;51.508;7.966;2023-09-19T09:42:34;18.00;99.90
6106;DHT22;3083;51.508;7.966;2023-09-19T09:45:16;18.10;99.90
6106;DHT22;3083;51.508;7.966;2023-09-19T09:47:45;18.10;99.90
6106;DHT22;3083;51.508;7.966;2023-09-19T09:50:28;18.10;99.90
6106;DHT22;3083;51.508;7.966;2023-09-19T09:53:21;18.10;99.90
6106;DHT22;3083;51.508;7.966;2023-09-19T09:56:01;18.10;99.90
6106;DHT22;3083;51.508;7.966;2023-09-19T09:58:30;18.10;99.90
6106;DHT22;3083;51.508;7.966;2023-09-19T10:00:58;18.20;99.90
6106;DHT22;3083;51.508;7.966;2023-09-19T10:03:32;18.20;99.90
6106;DHT22;3083;51.508;7.966;2023-09-19T10:06:08;18.30;99.90
6106;DHT22;3083;51.508;7.966;2023-09-19T10:09:00;18.40;99.90
6106;DHT22;3083;51.508;7.966;2023-09-19T10:11:41;18.50;99.90
6106;DHT22;3083;51.508;7.966;2023-09-19T10:14:12;18.80;99.90
6106;DHT22;3083;51.508;7.966;2023-09-19T10:16:45;19.00;99.90
6106;DHT22;3083;51.508;7.966;2023-09-19T10:19:16;19.10;99.90
6106;DHT22;3083;51.508;7.966;2023-09-19T10:21:48;19.00;99.90
6106;DHT22;3083;51.508;7.966;2023-09-19T10:24:17;18.90;99.90
6106;DHT22;3083;51.508;7.966;2023-09-19T10:26:45;18.70;99.90
6106;DHT22;3083;51.508;7.966;2023-09-19T10:29:17;18.70;99.90
6106;DHT22;3083;51.508;7.966;2023-09-19T10:31:47;18.80;99.90
6106;DHT22;3083;51.508;7.966;2023-09-19T10:34:15;18.90;99.90
6106;DHT22;3083;51.508;7.966;2023-09-19T10:36:44;19.00;99.90
6106;DHT22;3083;51.508;7.966;2023-09-19T10:39:14;19.30;99.90
6106;DHT22;3083;51.508;7.966;2023-09-19T10:41:50;19.60;99.90
6106;DHT22;3083;51.508;7.966;2023-09-19T10:44:23;19.90;99.90
6106;DHT22;3083;51.508;7.966;2023-09-19T10:46:51;20.10;99.90
6106;DHT22;3083;51.508;7.966;2023-09-19T10:49:19;20.30;99.90
6106;DHT22;3083;51.508;7.966;2023-09-19T10:51:49;20.20;99.90
6106;DHT22;3083;51.508;7.966;2023-09-19T10:54:18;20.00;99.90
6106;DHT22;3083;51.508;7.966;2023-09-19T10:56:49;19.70;99.90
6106;DHT22;3083;51.508;7.966;2023-09-19T10:59:18;19.50;99.90
6106;DHT22;3083;51.508;7.966;2023-09-19T11:01:48;19.60;99.90
6106;DHT22;3083;51.508;7.966;2023-09-19T11:04:37;19.60;99.90
6106;DHT22;3083;51.508;7.966;2023-09-19T11:07:06;19.70;99.90
6106;DHT22;3083;51.508;7.966;2023-09-19T11:09:44;19.80;99.90
6106;DHT22;3083;51.508;7.966;2023-09-19T11:12:11;19.90;99.90
6106;DHT22;3083;51.508;7.966;2023-09-19T11:14:40;19.90;99.90
6106;DHT22;3083;51.508;7.966;2023-09-19T11:17:42;19.90;99.90
6106;DHT22;3083;51.508;7.966;2023-09-19T11:20:22;19.90;99.90
6106;DHT22;3083;51.508;7.966;2023-09-19T11:23:21;20.00;99.90
6106;DHT22;3083;51.508;7.966;2023-09-19T11:25:50;20.20;99.90
6106;DHT22;3083;51.508;7.966;2023-09-19T11:28:32;20.30;99.90
6106;DHT22;3083;51.508;7.966;2023-09-19T11:31:00;20.30;99.90
6106;DHT22;3083;51.508;7.966;2023-09-19T11:33:48;20.30;99.90
6106;DHT22;3083;51.508;7.966;2023-09-19T11:36:16;20.40;99.90
6106;DHT22;3083;51.508;7.966;2023-09-19T11:38:58;20.40;99.90
6106;DHT22;3083;51.508;7.966;2023-09-19T11:41:40;20.40;99.90
6106;DHT22;3083;51.508;7.966;2023-09-19T11:44:31;20.30;99.90
6106;DHT22;3083;51.508;7.966;2023-09-19T11:46:59;20.30;99.90
6106;DHT22;3083;51.508;7.966;2023-09-19T11:49:31;20.50;99.90
6106;DHT22;3083;51.508;7.966;2023-09-19T11:52:00;20.70;99.90
6106;DHT22;3083;51.508;7.966;2023-09-19T11:54:31;20.80;99.90
6106;DHT22;3083;51.508;7.966;2023-09-19T11:56:59;20.80;99.90
6106;DHT22;3083;51.508;7.966;2023-09-19T11:59:27;20.90;99.90
6106;DHT22;3083;51.508;7.966;2023-09-19T12:01:56;21.00;99.90
6106;DHT22;3083;51.508;7.966;2023-09-19T12:04:38;21.10;99.90
6106;DHT22;3083;51.508;7.966;2023-09-19T12:07:07;21.20;99.90
6106;DHT22;3083;51.508;7.966;2023-09-19T12:09:39;21.20;99.90
6106;DHT22;3083;51.508;7.966;2023-09-19T12:12:09;21.30;99.90
6106;DHT22;3083;51.508;7.966;2023-09-19T12:14:38;21.10;99.90
6106;DHT22;3083;51.508;7.966;2023-09-19T12:17:07;21.00;99.90
6106;DHT22;3083;51.508;7.966;2023-09-19T12:19:34;21.10;99.90
6106;DHT22;3083;51.508;7.966;2023-09-19T12:22:03;21.10;99.90
6106;DHT22;3083;51.508;7.966;2023-09-19T12:24:31;21.10;99.90
6106;DHT22;3083;51.508;7.966;2023-09-19T12:27:01;21.10;99.90
6106;DHT22;3083;51.508;7.966;2023-09-19T12:29:30;21.10;99.90
6106;DHT22;3083;51.508;7.966;2023-09-19T12:31:58;21.00;99.90
6106;DHT22;3083;51.508;7.966;2023-09-19T12:34:30;20.90;99.90
6106;DHT22;3083;51.508;7.966;2023-09-19T12:37:08;21.00;99.90
6106;DHT22;3083;51.508;7.966;2023-09-19T12:39:44;21.00;99.90
6106;DHT22;3083;51.508;7.966;2023-09-19T12:42:15;20.90;99.90
6106;DHT22;3083;51.508;7.966;2023-09-19T12:44:43;20.90;99.90
6106;DHT22;3083;51.508;7.966;2023-09-19T12:47:11;20.90;99.90
6106;DHT22;3083;51.508;7.966;2023-09-19T12:52:45;20.70;99.90
6106;DHT22;3083;51.508;7.966;2023-09-19T12:55:21;20.60;99.90
6106;DHT22;3083;51.508;7.966;2023-09-19T12:58:07;20.60;99.90
6106;DHT22;3083;51.508;7.966;2023-09-19T13:00:35;20.60;99.90
6106;DHT22;3083;51.508;7.966;2023-09-19T13:03:16;20.60;99.90
6106;DHT22;3083;51.508;7.966;2023-09-19T13:05:51;20.60;99.90
6106;DHT22;3083;51.508;7.966;2023-09-19T13:08:23;20.70;99.90
6106;DHT22;3083;51.508;7.966;2023-09-19T13:11:05;20.60;99.90
6106;DHT22;3083;51.508;7.966;2023-09-19T13:13:41;20.60;99.90
6106;DHT22;3083;51.508;7.966;2023-09-19T13:16:10;20.60;99.90
6106;DHT22;3083;51.508;7.966;2023-09-19T13:18:47;20.50;99.90
6106;DHT22;3083;51.508;7.966;2023-09-19T13:21:17;20.40;99.90
6106;DHT22;3083;51.508;7.966;2023-09-19T13:23:55;20.50;99.90
6106;DHT22;3083;51.508;7.966;2023-09-19T13:26:25;20.50;99.90
6106;DHT22;3083;51.508;7.966;2023-09-19T13:28:53;20.50;99.90
6106;DHT22;3083;51.508;7.966;2023-09-19T13:31:20;20.60;99.90
6106;DHT22;3083;51.508;7.966;2023-09-19T13:33:48;20.60;99.90
6106;DHT22;3083;51.508;7.966;2023-09-19T13:36:16;20.60;99.90
6106;DHT22;3083;51.508;7.966;2023-09-19T13:38:44;20.70;99.90
6106;DHT22;3083;51.508;7.966;2023-09-19T13:41:15;20.70;99.90
6106;DHT22;3083;51.508;7.966;2023-09-19T13:43:42;20.70;99.90
6106;DHT22;3083;51.508;7.966;2023-09-19T13:46:09;20.80;99.90
6106;DHT22;3083;51.508;7.966;2023-09-19T13:48:40;20.80;99.90
6106;DHT22;3083;51.508;7.966;2023-09-19T13:51:07;20.60;99.90
6106;DHT22;3083;51.508;7.966;2023-09-19T13:53:34;20.60;99.90
6106;DHT22;3083;51.508;7.966;2023-09-19T13:56:01;20.60;99.90
6106;DHT22;3083;51.508;7.966;2023-09-19T13:58:29;20.60;99.90
6106;DHT22;3083;51.508;7.966;2023-09-19T14:00:59;20.60;99.90
6106;DHT22;3083;51.508;7.966;2023-09-19T14:03:26;20.50;99.90
6106;DHT22;3083;51.508;7.966;2023-09-19T14:05:54;20.50;99.90
6106;DHT22;3083;51.508;7.966;2023-09-19T14:08:20;20.60;99.90
6106;DHT22;3083;51.508;7.966;2023-09-19T14:10:48;20.60;99.90
6106;DHT22;3083;51.508;7.966;2023-09-19T14:13:15;20.70;99.90
6106;DHT22;3083;51.508;7.966;2023-09-19T14:15:43;20.70;99.90
6106;DHT22;3083;51.508;7.966;2023-09-19T14:18:10;20.70;99.90
6106;DHT22;3083;51.508;7.966;2023-09-19T14:20:38;20.60;99.90
6106;DHT22;3083;51.508;7.966;2023-09-19T14:23:06;20.60;99.90
6106;DHT22;3083;51.508;7.966;2023-09-19T14:25:34;20.60;99.90
6106;DHT22;3083;51.508;7.966;2023-09-19T14:28:01;20.50;99.90
6106;DHT22;3083;51.508;7.966;2023-09-19T14:30:28;20.50;99.90
6106;DHT22;3083;51.508;7.966;2023-09-19T14:32:56;20.50;99.90
6106;DHT22;3083;51.508;7.966;2023-09-19T14:35:24;20.50;99.90
6106;DHT22;3083;51.508;7.966;2023-09-19T14:37:51;20.60;99.90
6106;DHT22;3083;51.508;7.966;2023-09-19T14:40:18;20.60;99.90
6106;DHT22;3083;51.508;7.966;2023-09-19T14:42:45;20.60;99.90
6106;DHT22;3083;51.508;7.966;2023-09-19T14:45:12;20.60;99.90
6106;DHT22;3083;51.508;7.966;2023-09-19T14:47:42;20.60;99.90
6106;DHT22;3083;51.508;7.966;2023-09-19T14:50:10;20.60;99.90
6106;DHT22;3083;51.508;7.966;2023-09-19T14:52:38;20.50;99.90
6106;DHT22;3083;51.508;7.966;2023-09-19T14:55:06;20.50;99.90
6106;DHT22;3083;51.508;7.966;2023-09-19T14:57:34;20.50;99.90
6106;DHT22;3083;51.508;7.966;2023-09-19T15:00:06;20.30;99.90
6106;DHT22;3083;51.508;7.966;2023-09-19T15:02:37;20.30;99.90
6106;DHT22;3083;51.508;7.966;2023-09-19T15:05:05;20.20;99.90
6106;DHT22;3083;51.508;7.966;2023-09-19T15:07:35;20.10;99.90
6106;DHT22;3083;51.508;7.966;2023-09-19T15:10:03;20.10;99.90
6106;DHT22;3083;51.508;7.966;2023-09-19T15:12:32;20.10;99.90
6106;DHT22;3083;51.508;7.966;2023-09-19T15:15:00;20.00;99.90
6106;DHT22;3083;51.508;7.966;2023-09-19T15:17:27;19.90;99.90
6106;DHT22;3083;51.508;7.966;2023-09-19T15:19:54;19.80;99.90
6106;DHT22;3083;51.508;7.966;2023-09-19T15:22:21;19.80;99.90
6106;DHT22;3083;51.508;7.966;2023-09-19T15:24:50;19.70;99.90
6106;DHT22;3083;51.508;7.966;2023-09-19T15:27:17;19.70;99.90
6106;DHT22;3083;51.508;7.966;2023-09-19T15:29:45;19.60;99.90
6106;DHT22;3083;51.508;7.966;2023-09-19T15:32:13;19.60;99.90
6106;DHT22;3083;51.508;7.966;2023-09-19T15:34:40;19.60;99.90
6106;DHT22;3083;51.508;7.966;2023-09-19T15:37:06;19.60;99.90
6106;DHT22;3083;51.508;7.966;2023-09-19T15:39:33;19.50;99.90
6106;DHT22;3083;51.508;7.966;2023-09-19T15:42:03;19.50;99.90
6106;DHT22;3083;51.508;7.966;2023-09-19T15:44:30;19.40;99.90
6106;DHT22;3083;51.508;7.966;2023-09-19T15:46:57;19.50;99.90
6106;DHT22;3083;51.508;7.966;2023-09-19T15:49:24;19.40;99.90
6106;DHT22;3083;51.508;7.966;2023-09-19T15:51:51;19.40;99.90
6106;DHT22;3083;51.508;7.966;2023-09-19T15:54:18;19.30;99.90
6106;DHT22;3083;51.508;7.966;2023-09-19T15:56:46;19.30;99.90
6106;DHT22;3083;51.508;7.966;2023-09-19T15:59:15;19.30;99.90
6106;DHT22;3083;51.508;7.966;2023-09-19T16:01:43;19.20;99.90
6106;DHT22;3083;51.508;7.966;2023-09-19T16:04:11;19.20;99.90
6106;DHT22;3083;51.508;7.966;2023-09-19T16:06:39;19.10;99.90
6106;DHT22;3083;51.508;7.966;2023-09-19T16:09:06;19.10;99.90
6106;DHT22;3083;51.508;7.966;2023-09-19T16:11:34;19.00;99.90
6106;DHT22;3083;51.508;7.966;2023-09-19T16:14:02;19.00;99.90
6106;DHT22;3083;51.508;7.966;2023-09-19T16:16:31;19.00;99.90
6106;DHT22;3083;51.508;7.966;2023-09-19T16:19:01;18.80;99.90
6106;DHT22;3083;51.508;7.966;2023-09-19T16:21:31;18.80;99.90